K1YT

Yagabond Aaf

Yagabond Aaf, Washington, USA
METAR K1YT 260258Z AUTO 00000KT 10SM CLR 19/02 A3006 RMK AO2 SLPNO T01930016 55000 $
Observed Flight Rules
Apr-26 @ 02:58 UTC (45 minutes ago) Visual Flight Rules
Visibility Clouds
10 miles
  • Clear skies
Temperatures Readings
Current 19°C / 66°F
Dewpoint 2°C / 36°F
Humidity 32%
Altimeter 30.06" Hg
Pressure 1018 hPa
Elevation 438
METAR K1YT 260258Z AUTO 00000KT 10SM CLR 19/02 A3006 RMK AO2 SLPNO T01930016 55000 $
Observed Flight Rules
Apr-26 @ 02:58 UTC
(45 minutes ago)
VFR
Clouds
  • Clear skies
Temperature Dewpoint
19°C / 66°F 2°C / 36°F
Humidity Altimeter Pressure
32% 30.06" Hg 1018 hPa